Oklee, Minnesota
Current Conditions -  °F | °C
As of 10:35 AM on Monday 24 Nov 2014 (Local Time) from KFSE Reporting Station
Light Snow Light Snow  
Wind Chill: -14°   Ceiling: 1600
Heat Index:   Visibility: 2mi
Dew Point:   Wind: 22mph
Humidity: 79%   Direction: 320°NW
Pressure: 29.65"   Gusts: 28mph
Location:  47.84°N, 95.85°W
Report Text: KFSE 241635Z AUTO 32019G24KT 2SM -SN OVC016 M14/M17 A2965 RMK AO2
Loading
Personal Weather Stations






























Interactive Weather Map New forecast layout! Learn more

10-Day Weather Forecast

Advertisements
Track Severe Weather on mobile